createdAt,value
2016-06-22T00:00:44.768Z,0
2016-06-22T00:01:44.789Z,0
2016-06-22T00:02:43.594Z,0
2016-06-22T00:03:44.839Z,0
2016-06-22T00:04:44.864Z,0
2016-06-22T00:05:59.765Z,0
2016-06-22T00:06:44.903Z,0
2016-06-22T00:07:45.534Z,0
2016-06-22T00:08:44.357Z,0
2016-06-22T00:09:45.585Z,0
2016-06-22T00:11:14.162Z,0
2016-06-22T00:12:59.330Z,0
2016-06-22T00:13:45.078Z,0
2016-06-22T00:14:45.094Z,0
2016-06-22T00:15:45.744Z,0
2016-06-22T00:16:58.808Z,0
2016-06-22T00:17:44.571Z,0
2016-06-22T00:18:43.985Z,0
2016-06-22T00:20:44.019Z,0
2016-06-22T00:21:45.880Z,0
2016-06-22T00:22:44.687Z,0
2016-06-22T00:23:44.704Z,0
2016-06-22T00:24:45.350Z,0
2016-06-22T00:25:59.637Z,0
2016-06-22T00:26:45.387Z,0
2016-06-22T00:27:59.684Z,0
2016-06-22T00:28:45.459Z,0
2016-06-22T00:29:44.235Z,0
2016-06-22T00:30:45.501Z,0
2016-06-22T00:31:46.136Z,0
2016-06-22T00:32:44.302Z,0
2016-06-22T00:33:44.335Z,0
2016-06-22T00:34:46.190Z,0
2016-06-22T00:35:45.608Z,0
2016-06-22T00:36:59.896Z,0
2016-06-22T00:38:00.542Z,0
2016-06-22T00:38:45.070Z,0
2016-06-22T00:39:45.705Z,0
2016-06-22T00:40:45.732Z,0
2016-06-22T00:41:45.795Z,0
2016-06-22T00:42:45.765Z,0
2016-06-22T00:44:00.074Z,0
2016-06-22T00:44:45.228Z,0
2016-06-22T00:45:45.860Z,0
2016-06-22T00:46:45.878Z,0
2016-06-22T00:47:45.448Z,0
2016-06-22T00:48:46.141Z,0
2016-06-22T00:50:00.834Z,0
2016-06-22T00:50:44.763Z,0
2016-06-22T00:52:45.421Z,0
2016-06-22T00:53:45.467Z,0
2016-06-22T00:54:44.860Z,0
2016-06-22T00:55:44.882Z,0
2016-06-22T00:56:44.903Z,0
2016-06-22T00:58:00.406Z,0
2016-06-22T00:58:46.174Z,0
2016-06-22T00:59:45.589Z,0
2016-06-22T01:00:45.613Z,0
2016-06-22T01:01:45.040Z,0
2016-06-22T01:02:46.272Z,0
2016-06-22T01:03:59.959Z,0
2016-06-22T01:04:45.709Z,0
2016-06-22T01:05:45.121Z,0
2016-06-22T01:06:46.987Z,0
2016-06-22T01:07:45.788Z,0
2016-06-22T01:08:47.018Z,0
2016-06-22T01:09:46.665Z,0
2016-06-22T01:10:45.248Z,0
2016-06-22T01:12:01.366Z,0
2016-06-22T01:12:45.299Z,0
2016-06-22T01:14:00.195Z,0
2016-06-22T01:15:00.824Z,0
2016-06-22T01:15:45.359Z,0
2016-06-22T01:16:45.999Z,0
2016-06-22T01:18:00.888Z,0
2016-06-22T01:18:46.060Z,0
2016-06-22T01:20:47.340Z,0
2016-06-22T01:21:47.331Z,0
2016-06-22T01:25:45.599Z,0
2016-06-22T01:26:47.445Z,0
2016-06-22T01:27:45.670Z,0
2016-06-22T01:29:00.554Z,0
2016-06-22T01:30:01.182Z,0
2016-06-22T01:30:46.933Z,0
2016-06-22T01:31:46.366Z,0
2016-06-22T01:33:01.260Z,0
2016-06-22T01:33:46.399Z,0
2016-06-22T01:34:46.457Z,0
2016-06-22T01:35:47.054Z,0
2016-06-22T01:36:45.874Z,0
2016-06-22T01:37:45.888Z,0
2016-06-22T01:38:47.131Z,0
2016-06-22T01:39:45.939Z,0
2016-06-22T01:40:46.577Z,0
2016-06-22T01:41:47.799Z,0
2016-06-22T01:42:47.846Z,0
2016-06-22T01:46:02.190Z,0
2016-06-22T01:47:01.594Z,0
2016-06-22T01:47:46.736Z,0
2016-06-22T01:48:47.380Z,0
2016-06-22T01:49:47.410Z,0
2016-06-22T01:50:48.033Z,0
2016-06-22T01:51:46.836Z,4
2016-06-22T01:52:47.478Z,4
2016-06-22T01:53:46.272Z,4
2016-06-22T01:55:46.973Z,0
2016-06-22T01:57:02.463Z,4
2016-06-22T01:57:47.594Z,4
2016-06-22T01:58:46.382Z,4
2016-06-22T01:59:47.625Z,4
2016-06-22T02:01:01.929Z,4
2016-06-22T02:01:48.296Z,4
2016-06-22T02:02:46.478Z,8
2016-06-22T02:03:48.361Z,8
2016-06-22T02:05:47.806Z,8
2016-06-22T02:06:47.813Z,8
2016-06-22T02:07:47.827Z,12
2016-06-22T02:08:48.459Z,12
2016-06-22T02:09:48.519Z,12
2016-06-22T02:10:47.298Z,16
2016-06-22T02:11:47.329Z,16
2016-06-22T02:12:47.961Z,16
2016-06-22T02:13:47.963Z,20
2016-06-22T02:14:47.389Z,24
2016-06-22T02:15:47.442Z,24
2016-06-22T02:16:48.053Z,28
2016-06-22T02:17:48.075Z,28
2016-06-22T02:18:48.123Z,32
2016-06-22T02:19:48.137Z,36
2016-06-22T02:20:48.144Z,40
2016-06-22T02:22:02.428Z,44
2016-06-22T02:22:47.594Z,48
2016-06-22T02:23:47.606Z,56
2016-06-22T02:24:48.243Z,64
2016-06-22T02:25:48.905Z,68
2016-06-22T02:26:47.681Z,76
2016-06-22T02:27:47.703Z,80
2016-06-22T02:28:48.341Z,88
2016-06-22T02:29:48.402Z,100
2016-06-22T02:30:47.792Z,108
2016-06-22T02:32:02.687Z,124
2016-06-22T02:33:02.102Z,132
2016-06-22T02:33:47.238Z,140
2016-06-22T02:34:48.478Z,152
2016-06-22T02:35:48.510Z,160
2016-06-22T02:36:47.926Z,176
2016-06-22T02:37:47.340Z,188
2016-06-22T02:38:48.614Z,204
2016-06-22T02:39:48.608Z,216
2016-06-22T02:40:48.032Z,232
2016-06-22T02:41:48.066Z,252
2016-06-22T02:42:49.287Z,268
2016-06-22T02:43:47.493Z,284
2016-06-22T02:44:48.122Z,304
2016-06-22T02:47:03.045Z,348
2016-06-22T02:47:48.186Z,364
2016-06-22T02:49:03.091Z,392
2016-06-22T02:49:48.855Z,412
2016-06-22T02:51:02.538Z,440
2016-06-22T02:51:48.898Z,460
2016-06-22T02:53:02.581Z,488
2016-06-22T02:53:48.948Z,512
2016-06-22T02:54:48.973Z,544
2016-06-22T02:56:03.267Z,580
2016-06-22T02:56:49.012Z,604
2016-06-22T02:57:48.454Z,636
2016-06-22T02:58:47.846Z,672
2016-06-22T02:59:48.477Z,704
2016-06-22T03:01:02.770Z,748
2016-06-22T03:01:49.134Z,776
2016-06-22T03:02:48.586Z,812
2016-06-22T03:03:49.798Z,852
2016-06-22T03:05:02.877Z,900
2016-06-22T03:05:48.618Z,932
2016-06-22T03:06:48.645Z,976
2016-06-22T03:07:49.288Z,1024
2016-06-22T03:08:48.069Z,1068
2016-06-22T03:09:49.338Z,1116
2016-06-22T03:10:48.733Z,1168
2016-06-22T03:11:48.764Z,1220
2016-06-22T03:12:50.011Z,1276
2016-06-22T03:13:49.413Z,1332
2016-06-22T03:14:48.227Z,1380
2016-06-22T03:16:03.742Z,1448
2016-06-22T03:16:49.490Z,1488
2016-06-22T03:17:48.910Z,1540
2016-06-22T03:19:03.813Z,1612
2016-06-22T03:19:49.568Z,1652
2016-06-22T03:21:03.910Z,1728
2016-06-22T03:21:49.614Z,1776
2016-06-22T03:22:49.027Z,1840
2016-06-22T03:23:49.083Z,1908
2016-06-22T03:24:48.470Z,1980
2016-06-22T03:25:50.324Z,2052
2016-06-22T03:27:50.396Z,2200
2016-06-22T03:28:49.166Z,2280
2016-06-22T03:29:49.195Z,2368
2016-06-22T03:30:48.608Z,2452
2016-06-22T03:31:49.852Z,2544
2016-06-22T03:32:49.880Z,2644
2016-06-22T03:33:49.294Z,2736
2016-06-22T03:34:49.930Z,2840
2016-06-22T03:36:04.835Z,3032
2016-06-22T03:36:49.975Z,3200
2016-06-22T03:37:50.615Z,3460
2016-06-22T03:38:50.010Z,3764
2016-06-22T03:39:49.440Z,4048
2016-06-22T03:40:48.861Z,4280
2016-06-22T03:41:48.879Z,4512
2016-06-22T03:42:49.520Z,4876
2016-06-22T03:43:50.150Z,5080
2016-06-22T03:44:49.550Z,5452
2016-06-22T03:45:49.594Z,5496
2016-06-22T03:46:49.611Z,5604
2016-06-22T03:47:49.638Z,5716
2016-06-22T03:48:49.668Z,5812
2016-06-22T03:49:50.289Z,5872
2016-06-22T03:50:50.302Z,5948
2016-06-22T03:51:49.748Z,6060
2016-06-22T03:52:49.761Z,6220
2016-06-22T03:54:04.051Z,6368
2016-06-22T03:54:49.796Z,6336
2016-06-22T03:57:04.127Z,6776
2016-06-22T03:58:50.503Z,7456
2016-06-22T03:59:49.914Z,6008
2016-06-22T04:00:49.947Z,5824
2016-06-22T04:01:49.966Z,4492
2016-06-22T04:03:04.884Z,4148
2016-06-22T04:03:51.246Z,4040
2016-06-22T04:04:50.063Z,3920
2016-06-22T04:05:51.306Z,3812
2016-06-22T04:08:05.602Z,3708
2016-06-22T04:08:50.741Z,3708
2016-06-22T04:09:49.569Z,3728
2016-06-22T04:11:05.082Z,3796
2016-06-22T04:12:05.089Z,3848
2016-06-22T04:12:49.639Z,3876
2016-06-22T04:13:49.658Z,3900
2016-06-22T04:14:50.281Z,3896
2016-06-22T04:15:50.920Z,3860
2016-06-22T04:16:50.334Z,3780
2016-06-22T04:17:49.757Z,3712
2016-06-22T04:18:50.385Z,3684
2016-06-22T04:19:49.799Z,3720
2016-06-22T04:20:51.044Z,3820
2016-06-22T04:21:51.065Z,3940
2016-06-22T04:22:50.486Z,4056
2016-06-22T04:24:06.002Z,4208
2016-06-22T04:25:49.939Z,4424
2016-06-22T04:26:50.582Z,4516
2016-06-22T04:28:04.873Z,4604
2016-06-22T04:28:51.249Z,4692
2016-06-22T04:29:50.653Z,4888
2016-06-22T04:30:50.061Z,5164
2016-06-22T04:31:51.326Z,5492
2016-06-22T04:32:50.119Z,5836
2016-06-22T04:33:51.351Z,6148
2016-06-22T04:34:50.772Z,6392
2016-06-22T04:35:50.803Z,6672
2016-06-22T04:36:50.212Z,6960
2016-06-22T04:40:05.167Z,9200
2016-06-22T04:41:05.806Z,14412
2016-06-22T04:41:50.963Z,10072
2016-06-22T04:43:06.475Z,10184
2016-06-22T04:43:50.386Z,10472
2016-06-22T04:44:52.233Z,11172
2016-06-22T04:45:51.661Z,12408
2016-06-22T04:46:51.702Z,18720
2016-06-22T04:47:52.305Z,25856
2016-06-22T04:48:51.140Z,15720
2016-06-22T04:49:51.758Z,18560
2016-06-22T04:50:51.774Z,35520
2016-06-22T04:51:51.814Z,35232
2016-06-22T04:52:52.439Z,26688
2016-06-22T04:53:51.878Z,22304
2016-06-22T04:54:51.887Z,37408
2016-06-22T04:56:05.580Z,75584
2016-06-22T04:56:51.938Z,32960
2016-06-22T04:57:51.983Z,24672
2016-06-22T04:58:52.006Z,33504
2016-06-22T04:59:50.796Z,61152
2016-06-22T05:01:06.312Z,93824
2016-06-22T05:01:51.455Z,87904
2016-06-22T05:02:50.878Z,72608
2016-06-22T05:03:51.514Z,46976
2016-06-22T05:05:06.433Z,23232
2016-06-22T05:05:52.802Z,22720
2016-06-22T05:06:52.216Z,24864
2016-06-22T05:07:52.226Z,40096
2016-06-22T05:08:51.658Z,95168
2016-06-22T05:09:52.923Z,94144
2016-06-22T05:11:21.482Z,40160
2016-06-22T05:11:52.382Z,39872
2016-06-22T05:12:51.810Z,44928
2016-06-22T05:13:51.803Z,49376
2016-06-22T05:14:51.223Z,35904
2016-06-22T05:15:51.870Z,25696
2016-06-22T05:16:53.123Z,26304
2016-06-22T05:17:51.937Z,28608
2016-06-22T05:18:51.970Z,28000
2016-06-22T05:19:53.207Z,39168
2016-06-22T05:20:52.623Z,48864
2016-06-22T05:21:52.066Z,49600
2016-06-22T05:22:51.474Z,34176
2016-06-22T05:24:06.985Z,29440
2016-06-22T05:25:07.007Z,65824
2016-06-22T05:26:07.646Z,38080
2016-06-22T05:26:52.793Z,38496
2016-06-22T05:27:52.212Z,93280
2016-06-22T05:28:52.251Z,99968
2016-06-22T05:29:52.882Z,99040
2016-06-22T05:30:52.327Z,93664
2016-06-22T05:32:07.252Z,59264
2016-06-22T05:32:52.378Z,46624
2016-06-22T05:33:52.413Z,42688
2016-06-22T05:34:53.050Z,40448
2016-06-22T05:35:53.071Z,48960
2016-06-22T05:37:08.003Z,102336
2016-06-22T05:38:07.413Z,87232
2016-06-22T05:38:53.156Z,74816
2016-06-22T05:39:53.809Z,82336
2016-06-22T05:40:52.005Z,98624
2016-06-22T05:41:52.646Z,83872
2016-06-22T05:43:06.959Z,63456
2016-06-22T05:43:52.763Z,49536
2016-06-22T05:44:53.367Z,41760
2016-06-22T05:45:52.172Z,44448
2016-06-22T05:46:52.202Z,45280
2016-06-22T05:47:52.844Z,52640
2016-06-22T05:48:53.501Z,58368
2016-06-22T05:49:52.914Z,58880
2016-06-22T05:50:52.933Z,49344
2016-06-22T05:51:52.367Z,43168
2016-06-22T05:52:53.645Z,40256
2016-06-22T05:54:53.060Z,35136
2016-06-22T05:56:07.985Z,32000
2016-06-22T05:56:53.737Z,36832
2016-06-22T05:57:53.149Z,46400
2016-06-22T05:59:08.085Z,64352
2016-06-22T06:00:08.108Z,61440
2016-06-22T06:00:53.863Z,68960
2016-06-22T06:01:52.675Z,74144
2016-06-22T06:02:52.712Z,91136
2016-06-22T06:03:53.974Z,100768
2016-06-22T06:04:54.654Z,100032
2016-06-22T06:05:53.421Z,95968
2016-06-22T06:07:52.882Z,97696
2016-06-22T06:08:53.513Z,98528
2016-06-22T06:09:53.543Z,95392
2016-06-22T06:10:53.595Z,89632
2016-06-22T06:11:53.003Z,88896
2016-06-22T06:14:08.576Z,89472
2016-06-22T06:15:09.205Z,87936
2016-06-22T06:15:53.752Z,88672
2016-06-22T06:16:53.787Z,90304
2016-06-22T06:17:54.444Z,93408
2016-06-22T06:18:53.881Z,93600
2016-06-22T06:19:53.881Z,93888
2016-06-22T06:20:53.942Z,91488
2016-06-22T06:21:53.968Z,91808
2016-06-22T06:22:53.394Z,89536
2016-06-22T06:23:54.041Z,85856
2016-06-22T06:24:54.071Z,83584
2016-06-22T06:25:54.115Z,84480
2016-06-22T06:27:54.824Z,90624
2016-06-22T06:28:55.435Z,88736
2016-06-22T06:29:55.486Z,86720
2016-06-22T06:31:09.785Z,87712
2016-06-22T06:31:54.336Z,88000
2016-06-22T06:33:54.406Z,85856
2016-06-22T06:34:55.069Z,79680
2016-06-22T06:35:55.076Z,73216
2016-06-22T06:36:53.906Z,77088
2016-06-22T06:37:54.560Z,81824
2016-06-22T06:38:55.205Z,82784
2016-06-22T06:39:54.637Z,82944
2016-06-22T06:40:54.076Z,81760
2016-06-22T06:41:54.703Z,80704
2016-06-22T06:42:54.745Z,79872
2016-06-22T06:43:54.790Z,79424
2016-06-22T06:44:55.437Z,81376
2016-06-22T06:46:10.580Z,79776
2016-06-22T06:46:54.921Z,82208
2016-06-22T06:47:54.943Z,78048
2016-06-22T06:49:09.857Z,71744
2016-06-22T06:49:55.034Z,74368
2016-06-22T06:51:55.082Z,79040
2016-06-22T06:52:55.136Z,77536
2016-06-22T06:53:55.161Z,79648
2016-06-22T06:54:55.811Z,78240
2016-06-22T06:55:55.239Z,81248
2016-06-22T06:57:55.316Z,57888
2016-06-22T06:58:56.577Z,43104
2016-06-22T06:59:55.400Z,54784
2016-06-22T07:00:54.836Z,39424
2016-06-22T07:03:09.783Z,35360
2016-06-22T07:03:54.946Z,34816
2016-06-22T07:04:55.585Z,36160
2016-06-22T07:06:09.893Z,37376
2016-06-22T07:06:55.679Z,40288
2016-06-22T07:07:55.094Z,39008
2016-06-22T07:08:55.769Z,43296
2016-06-22T07:10:11.258Z,50720
2016-06-22T07:11:57.050Z,70400
2016-06-22T07:12:55.297Z,57792
2016-06-22T07:14:56.597Z,59424
2016-06-22T07:15:55.992Z,70592
2016-06-22T07:16:56.646Z,66272
2016-06-22T07:18:10.993Z,53024
2016-06-22T07:18:56.711Z,59616
2016-06-22T07:19:56.180Z,60704
2016-06-22T07:20:57.390Z,49216
2016-06-22T07:21:57.262Z,52896
2016-06-22T07:22:56.276Z,44896
2016-06-22T07:23:56.923Z,57376
2016-06-22T07:24:56.820Z,44096
2016-06-22T07:25:56.352Z,59936
2016-06-22T07:26:57.625Z,77472
2016-06-22T07:27:56.702Z,68128
2016-06-22T07:28:56.631Z,75264
2016-06-22T07:29:56.546Z,81088
2016-06-22T07:30:57.849Z,78016
2016-06-22T07:32:57.884Z,75872
2016-06-22T07:34:12.230Z,74976
2016-06-22T07:35:11.837Z,73568
2016-06-22T07:35:56.111Z,74464
2016-06-22T07:36:58.379Z,77856
2016-06-22T07:37:57.411Z,75264
2016-06-22T07:38:57.407Z,70752
2016-06-22T07:39:57.264Z,70432
2016-06-22T07:40:56.929Z,72960
2016-06-22T07:41:58.527Z,75104
2016-06-22T07:42:57.914Z,70752
2016-06-22T07:43:58.273Z,69504
2016-06-22T07:45:58.372Z,71744
2016-06-22T07:46:57.163Z,69344
2016-06-22T07:47:57.802Z,57568
2016-06-22T07:48:57.249Z,68032
2016-06-22T07:50:12.148Z,66336
2016-06-22T07:50:57.320Z,64832
2016-06-22T07:52:12.458Z,67680
2016-06-22T07:52:57.395Z,66304
2016-06-22T07:53:57.440Z,63776
2016-06-22T07:54:58.082Z,65632
2016-06-22T07:55:57.545Z,57952
2016-06-22T07:56:56.933Z,51360
2016-06-22T07:57:57.579Z,67488
2016-06-22T07:58:58.233Z,64512
2016-06-22T08:01:11.961Z,63552
2016-06-22T08:01:58.370Z,65312
2016-06-22T08:02:58.395Z,62656
2016-06-22T08:03:58.417Z,60320
2016-06-22T08:05:12.738Z,41760
2016-06-22T08:06:12.764Z,25216
2016-06-22T08:06:57.976Z,21152
2016-06-22T08:07:59.204Z,20416
2016-06-22T08:08:58.006Z,19584
2016-06-22T08:09:58.045Z,19200
2016-06-22T08:11:58.116Z,18720
2016-06-22T08:12:58.777Z,18368
2016-06-22T08:13:59.423Z,18336
2016-06-22T08:14:59.468Z,18016
2016-06-22T08:15:58.883Z,18048
2016-06-22T08:16:58.315Z,17760
2016-06-22T08:17:57.729Z,17664
2016-06-22T08:18:58.992Z,17568
2016-06-22T08:20:13.917Z,17408
2016-06-22T08:21:13.348Z,17504
2016-06-22T08:21:59.117Z,16912
2016-06-22T08:22:57.925Z,17008
2016-06-22T08:24:58.622Z,16992
2016-06-22T08:25:59.890Z,16960
2016-06-22T08:26:59.923Z,16932
2016-06-22T08:27:59.340Z,16884
2016-06-22T08:28:59.378Z,16832
2016-06-22T08:30:00.026Z,16936
2016-06-22T08:30:58.253Z,16948
2016-06-22T08:31:58.278Z,17060
2016-06-22T08:33:13.821Z,17104
2016-06-22T08:33:58.355Z,17440
2016-06-22T08:34:59.611Z,17696
2016-06-22T08:35:59.644Z,17856
2016-06-22T08:36:59.108Z,18304
2016-06-22T08:38:00.329Z,18752
2016-06-22T08:39:00.354Z,17004
2016-06-22T08:39:59.203Z,15760
2016-06-22T08:41:00.450Z,15236
2016-06-22T08:42:00.491Z,15700
2016-06-22T08:42:59.910Z,17952
2016-06-22T08:43:59.336Z,16616
2016-06-22T08:45:14.297Z,16388
2016-06-22T08:46:14.311Z,18848
2016-06-22T08:47:00.050Z,18176
2016-06-22T08:48:00.095Z,18752
2016-06-22T08:48:59.523Z,18560
2016-06-22T08:49:59.560Z,17760
2016-06-22T08:51:00.206Z,18176
2016-06-22T08:52:14.507Z,19680
2016-06-22T08:53:15.154Z,18528
2016-06-22T08:53:59.689Z,19520
2016-06-22T08:55:00.338Z,22240
2016-06-22T08:56:14.042Z,20800
2016-06-22T08:56:59.809Z,21440
2016-06-22T08:57:59.858Z,23424
2016-06-22T08:58:59.272Z,23904
2016-06-22T09:00:00.548Z,21920
2016-06-22T09:01:00.578Z,21792
2016-06-22T09:02:00.610Z,20352
2016-06-22T09:03:00.649Z,20416
2016-06-22T09:04:15.555Z,22080
2016-06-22T09:05:00.102Z,22272
2016-06-22T09:05:59.525Z,23040
2016-06-22T09:07:14.442Z,21248
2016-06-22T09:08:00.863Z,21120
2016-06-22T09:09:15.125Z,18976
2016-06-22T09:09:59.663Z,19936
2016-06-22T09:11:01.556Z,21152
2016-06-22T09:12:15.222Z,20128
2016-06-22T09:13:00.389Z,19840
2016-06-22T09:14:01.041Z,21088
2016-06-22T09:15:00.454Z,20672
2016-06-22T09:16:00.482Z,20832
2016-06-22T09:17:01.162Z,20352
2016-06-22T09:18:00.550Z,20320
2016-06-22T09:18:59.982Z,22592
2016-06-22T09:20:00.631Z,19040
2016-06-22T09:21:01.265Z,22592
2016-06-22T09:22:16.189Z,18912
2016-06-22T09:23:00.763Z,18624
2016-06-22T09:25:16.296Z,20800
2016-06-22T09:26:00.863Z,20800
2016-06-22T09:27:00.888Z,20832
2016-06-22T09:28:02.122Z,22208
2016-06-22T09:29:00.931Z,20544
2016-06-22T09:30:01.584Z,18528
2016-06-22T09:31:02.234Z,18400
2016-06-22T09:32:01.648Z,19232
2016-06-22T09:33:02.311Z,20224
2016-06-22T09:35:03.045Z,21920
2016-06-22T09:36:03.090Z,17792
2016-06-22T09:37:02.442Z,17792
2016-06-22T09:38:01.869Z,19648
2016-06-22T09:39:01.910Z,20128
2016-06-22T09:42:02.626Z,17568
2016-06-22T09:43:16.307Z,17504
2016-06-22T09:44:01.710Z,17824
2016-06-22T09:45:15.763Z,15400
2016-06-22T09:46:01.535Z,16992
2016-06-22T09:47:02.201Z,18240
2016-06-22T09:48:01.611Z,17952
2016-06-22T09:49:01.655Z,18368
2016-06-22T09:50:01.074Z,18944
2016-06-22T09:52:01.150Z,18336
2016-06-22T09:53:01.795Z,16472
2016-06-22T09:54:01.191Z,17408
2016-06-22T09:55:02.465Z,19040
2016-06-22T09:56:16.771Z,16568
2016-06-22T09:57:16.185Z,15804
2016-06-22T09:58:03.161Z,16960
2016-06-22T10:00:01.409Z,16356
2016-06-22T10:01:02.050Z,14596
2016-06-22T10:02:03.302Z,17312
2016-06-22T10:03:02.737Z,17280
2016-06-22T10:04:01.546Z,16060
2016-06-22T10:05:02.194Z,17408
2016-06-22T10:06:03.458Z,13856
2016-06-22T10:07:02.252Z,16316
2016-06-22T10:08:01.681Z,12296
2016-06-22T10:09:02.339Z,12672
2016-06-22T10:10:02.987Z,14352
2016-06-22T10:11:01.774Z,15660
2016-06-22T10:12:03.050Z,17504
2016-06-22T10:13:01.855Z,18336
2016-06-22T10:14:02.443Z,15352
2016-06-22T10:15:03.766Z,14676
2016-06-22T10:17:02.609Z,13448
2016-06-22T10:18:03.259Z,13736
2016-06-22T10:19:02.110Z,13652
2016-06-22T10:21:17.610Z,13552
2016-06-22T10:23:02.810Z,18144
2016-06-22T10:24:02.836Z,16332
2016-06-22T10:25:02.889Z,13596
2016-06-22T10:26:02.918Z,14976
2016-06-22T10:28:18.470Z,14244
2016-06-22T10:29:02.996Z,13788
2016-06-22T10:30:03.036Z,12928
2016-06-22T10:31:03.085Z,12528
2016-06-22T10:32:18.598Z,12164
2016-06-22T10:33:03.805Z,12896
2016-06-22T10:34:18.057Z,15128
2016-06-22T10:35:04.439Z,14724
2016-06-22T10:36:02.635Z,14644
2016-06-22T10:37:03.279Z,13792
2016-06-22T10:38:03.299Z,12912
2016-06-22T10:39:03.335Z,13364
2016-06-22T10:40:18.257Z,12340
2016-06-22T10:41:04.626Z,12288
2016-06-22T10:44:19.031Z,11900
2016-06-22T10:45:03.548Z,10456
2016-06-22T10:46:02.974Z,12396
2016-06-22T10:47:03.623Z,11948
2016-06-22T10:48:17.914Z,12736
2016-06-22T10:49:03.687Z,13256
2016-06-22T10:50:04.327Z,12972
2016-06-22T10:51:18.628Z,14676
2016-06-22T10:52:04.394Z,14332
2016-06-22T10:53:18.690Z,15832
2016-06-22T10:54:04.460Z,12792
2016-06-22T10:55:03.310Z,12112
2016-06-22T10:57:18.843Z,13860
2016-06-22T10:58:03.990Z,14964
2016-06-22T10:59:04.025Z,13656
2016-06-22T11:00:18.333Z,12560
2016-06-22T11:01:18.970Z,12508
2016-06-22T11:02:03.498Z,12796
2016-06-22T11:04:04.815Z,15100
2016-06-22T11:05:04.220Z,12520
2016-06-22T11:06:03.645Z,14152
2016-06-22T11:07:04.899Z,13836
2016-06-22T11:08:04.315Z,12664
2016-06-22T11:09:04.377Z,11112
2016-06-22T11:11:03.789Z,9564
2016-06-22T11:12:05.064Z,9392
2016-06-22T11:14:03.910Z,9668
2016-06-22T11:15:05.155Z,10488
2016-06-22T11:16:19.461Z,9544
2016-06-22T11:17:05.246Z,9560
2016-06-22T11:19:04.685Z,8972
2016-06-22T11:20:05.334Z,8652
2016-06-22T11:21:04.758Z,9068
2016-06-22T11:22:05.419Z,8964
2016-06-22T11:23:05.422Z,10396
2016-06-22T11:24:05.455Z,11048
2016-06-22T11:25:04.275Z,11372
2016-06-22T11:26:05.508Z,10372
2016-06-22T11:27:04.938Z,10264
2016-06-22T11:28:04.358Z,9736
2016-06-22T11:29:05.002Z,9560
2016-06-22T11:30:06.264Z,9804
2016-06-22T11:31:19.965Z,10084
2016-06-22T11:32:05.097Z,9636
2016-06-22T11:33:20.016Z,10224
2016-06-22T11:34:05.853Z,10832
2016-06-22T11:35:06.429Z,11084
2016-06-22T11:36:04.621Z,10156
2016-06-22T11:37:05.286Z,11708
2016-06-22T11:38:05.298Z,9584
2016-06-22T11:39:05.374Z,9788
2016-06-22T11:40:05.356Z,9708
2016-06-22T11:41:20.894Z,9492
2016-06-22T11:42:20.312Z,9416
2016-06-22T11:43:06.056Z,9312
2016-06-22T11:44:06.697Z,9612
2016-06-22T11:46:06.176Z,8836
2016-06-22T11:47:06.209Z,9384
2016-06-22T11:48:19.892Z,9568
2016-06-22T11:49:06.261Z,9444
2016-06-22T11:50:21.185Z,9376
2016-06-22T11:52:06.373Z,9404
2016-06-22T11:53:05.778Z,9548
2016-06-22T11:54:05.194Z,8900
2016-06-22T11:55:06.483Z,8992
2016-06-22T11:56:05.895Z,9280
2016-06-22T11:57:05.911Z,10000
2016-06-22T11:58:06.554Z,10408
2016-06-22T11:59:06.599Z,10596
2016-06-22T12:00:06.625Z,10452
2016-06-22T12:01:20.931Z,10704
2016-06-22T12:02:07.288Z,11080
2016-06-22T12:03:20.369Z,11424
2016-06-22T12:04:05.536Z,11444
2016-06-22T12:05:07.387Z,11636
2016-06-22T12:06:06.821Z,11564
2016-06-22T12:07:06.856Z,11348
2016-06-22T12:08:06.906Z,11900
2016-06-22T12:09:21.189Z,11984
2016-06-22T12:10:06.947Z,11180
2016-06-22T12:11:21.254Z,10416
2016-06-22T12:12:07.627Z,10352
2016-06-22T12:13:05.809Z,10352
2016-06-22T12:14:06.462Z,10936
2016-06-22T12:15:07.096Z,10952
2016-06-22T12:16:05.910Z,11784
2016-06-22T12:17:07.173Z,10604
2016-06-22T12:18:06.602Z,10592
2016-06-22T12:19:21.514Z,10640
2016-06-22T12:20:07.869Z,10536
2016-06-22T12:21:06.086Z,10248
2016-06-22T12:22:06.717Z,10404
2016-06-22T12:24:07.400Z,10732
2016-06-22T12:25:07.446Z,10860
2016-06-22T12:26:07.466Z,10792
2016-06-22T12:27:07.486Z,10888
2016-06-22T12:28:06.901Z,10952
2016-06-22T12:29:21.212Z,10832
2016-06-22T12:30:06.988Z,10812
2016-06-22T12:31:07.625Z,10776
2016-06-22T12:32:07.026Z,10948
2016-06-22T12:33:21.375Z,10772
2016-06-22T12:34:07.719Z,10676
2016-06-22T12:35:22.037Z,10304
2016-06-22T12:36:07.791Z,9996
2016-06-22T12:37:07.815Z,9528
2016-06-22T12:38:21.499Z,9012
2016-06-22T12:39:08.484Z,8752
2016-06-22T12:40:22.792Z,8400
2016-06-22T12:41:21.606Z,8124
2016-06-22T12:42:08.603Z,7872
2016-06-22T12:43:07.426Z,7680
2016-06-22T12:44:08.044Z,7584
2016-06-22T12:45:07.449Z,7524
2016-06-22T12:47:22.404Z,7192
2016-06-22T12:48:06.933Z,7000
2016-06-22T12:49:06.970Z,6728
2016-06-22T12:50:23.113Z,6432
2016-06-22T12:51:22.533Z,6268
2016-06-22T12:52:07.691Z,6176
2016-06-22T12:53:22.592Z,6120
2016-06-22T12:54:07.116Z,6044
2016-06-22T12:55:07.763Z,5868
2016-06-22T12:56:08.421Z,5648
2016-06-22T12:57:08.438Z,5444
2016-06-22T12:59:07.921Z,5108
2016-06-22T13:01:22.834Z,5024
2016-06-22T13:02:22.274Z,5112
2016-06-22T13:03:22.894Z,5288
2016-06-22T13:04:23.582Z,5540
2016-06-22T13:05:22.363Z,5852
2016-06-22T13:06:22.385Z,6208
2016-06-22T13:07:09.664Z,6468
2016-06-22T13:08:08.181Z,6860
2016-06-22T13:09:08.194Z,7356
2016-06-22T13:10:08.252Z,7980
2016-06-22T13:11:09.529Z,9532
2016-06-22T13:13:08.354Z,10248
2016-06-22T13:15:09.032Z,9052
2016-06-22T13:16:09.026Z,8856
2016-06-22T13:17:09.131Z,8680
2016-06-22T13:18:09.707Z,8524
2016-06-22T13:19:07.921Z,8296
2016-06-22T13:20:23.446Z,7972
2016-06-22T13:21:09.214Z,7696
2016-06-22T13:22:08.003Z,7152
2016-06-22T13:23:08.654Z,6412
2016-06-22T13:24:09.280Z,5792
2016-06-22T13:25:08.732Z,5196
2016-06-22T13:26:09.367Z,4560
2016-06-22T13:27:10.012Z,3984
2016-06-22T13:29:09.450Z,2972
2016-06-22T13:30:09.488Z,2588
2016-06-22T13:31:08.906Z,2232
2016-06-22T13:33:08.960Z,1716
2016-06-22T13:34:09.014Z,1608
2016-06-22T13:35:23.915Z,1532
2016-06-22T13:36:09.074Z,1508
2016-06-22T13:37:09.095Z,1492
2016-06-22T13:38:23.393Z,1496
2016-06-22T13:41:09.230Z,1700
2016-06-22T13:43:09.305Z,1932
2016-06-22T13:44:09.910Z,2064
2016-06-22T13:46:08.766Z,2248
2016-06-22T13:47:09.401Z,2336
2016-06-22T13:48:10.037Z,2404
2016-06-22T13:49:08.865Z,2472
2016-06-22T13:50:09.482Z,2532
2016-06-22T13:51:10.125Z,2556
2016-06-22T13:52:09.559Z,2560
2016-06-22T13:53:09.591Z,2548
2016-06-22T13:54:25.090Z,2532
2016-06-22T13:55:10.256Z,2504
2016-06-22T13:56:10.279Z,2468
2016-06-22T13:57:23.971Z,2468
2016-06-22T13:58:25.225Z,2476
2016-06-22T13:59:09.150Z,2496
2016-06-22T14:00:09.821Z,2540
2016-06-22T14:01:09.829Z,2568
2016-06-22T14:02:11.078Z,2592
2016-06-22T14:03:09.876Z,2620
2016-06-22T14:04:09.310Z,2660
2016-06-22T14:05:11.170Z,2724
2016-06-22T14:06:25.469Z,2816
2016-06-22T14:07:09.411Z,2892
2016-06-22T14:08:10.654Z,3040
2016-06-22T14:09:10.077Z,3220
2016-06-22T14:10:24.991Z,3432
2016-06-22T14:11:11.369Z,3552
2016-06-22T14:12:25.050Z,3828
2016-06-22T14:13:10.818Z,4060
2016-06-22T14:14:10.837Z,4352
2016-06-22T14:15:10.851Z,4600
2016-06-22T14:16:10.923Z,4808
2016-06-22T14:17:10.907Z,4952
2016-06-22T14:18:10.950Z,5016
2016-06-22T14:19:10.373Z,5108
2016-06-22T14:20:09.785Z,5244
2016-06-22T14:21:09.830Z,5404
2016-06-22T14:22:10.462Z,5496
2016-06-22T14:23:11.095Z,5588
2016-06-22T14:24:11.114Z,5680